sensor_id;sensor_type;location;lat;lon;timestamp;P1;durP1;ratioP1;P2;durP2;ratioP2
20423;SDS011;10371;49.042;8.002;2022-09-30T00:00:55;5.17;;;3.80;;
20423;SDS011;10371;49.042;8.002;2022-09-30T00:01:56;4.23;;;3.83;;
20423;SDS011;10371;49.042;8.002;2022-09-30T00:02:57;3.87;;;3.57;;
20423;SDS011;10371;49.042;8.002;2022-09-30T00:03:57;4.70;;;4.20;;
20423;SDS011;10371;49.042;8.002;2022-09-30T00:04:58;3.87;;;3.57;;
20423;SDS011;10371;49.042;8.002;2022-09-30T00:05:59;4.00;;;3.70;;
20423;SDS011;10371;49.042;8.002;2022-09-30T00:07:00;4.13;;;3.73;;
20423;SDS011;10371;49.042;8.002;2022-09-30T00:08:01;4.10;;;3.70;;
20423;SDS011;10371;49.042;8.002;2022-09-30T00:09:01;4.60;;;3.93;;
20423;SDS011;10371;49.042;8.002;2022-09-30T00:10:02;5.20;;;3.40;;
20423;SDS011;10371;49.042;8.002;2022-09-30T00:12:05;3.83;;;3.53;;
20423;SDS011;10371;49.042;8.002;2022-09-30T00:13:05;5.13;;;3.87;;
20423;SDS011;10371;49.042;8.002;2022-09-30T00:14:06;5.27;;;4.07;;
20423;SDS011;10371;49.042;8.002;2022-09-30T00:15:11;4.10;;;3.73;;
20423;SDS011;10371;49.042;8.002;2022-09-30T00:16:13;4.53;;;4.13;;
20423;SDS011;10371;49.042;8.002;2022-09-30T00:17:14;4.00;;;3.70;;
20423;SDS011;10371;49.042;8.002;2022-09-30T00:18:14;4.43;;;4.00;;
20423;SDS011;10371;49.042;8.002;2022-09-30T00:19:14;4.23;;;3.80;;
20423;SDS011;10371;49.042;8.002;2022-09-30T00:20:15;4.10;;;3.70;;
20423;SDS011;10371;49.042;8.002;2022-09-30T00:21:16;4.00;;;3.70;;
20423;SDS011;10371;49.042;8.002;2022-09-30T00:22:17;4.37;;;3.73;;
20423;SDS011;10371;49.042;8.002;2022-09-30T00:23:18;3.70;;;3.40;;
20423;SDS011;10371;49.042;8.002;2022-09-30T00:24:19;3.93;;;3.53;;
20423;SDS011;10371;49.042;8.002;2022-09-30T00:25:20;3.80;;;3.50;;
20423;SDS011;10371;49.042;8.002;2022-09-30T00:26:21;3.40;;;3.10;;
20423;SDS011;10371;49.042;8.002;2022-09-30T00:27:22;4.00;;;3.20;;
20423;SDS011;10371;49.042;8.002;2022-09-30T00:28:22;3.67;;;3.37;;
20423;SDS011;10371;49.042;8.002;2022-09-30T00:29:23;3.37;;;3.07;;
20423;SDS011;10371;49.042;8.002;2022-09-30T00:30:23;3.23;;;2.97;;
20423;SDS011;10371;49.042;8.002;2022-09-30T00:31:24;2.90;;;2.70;;
20423;SDS011;10371;49.042;8.002;2022-09-30T00:32:27;3.37;;;3.13;;
20423;SDS011;10371;49.042;8.002;2022-09-30T00:33:28;2.80;;;2.60;;
20423;SDS011;10371;49.042;8.002;2022-09-30T00:34:28;4.07;;;3.13;;
20423;SDS011;10371;49.042;8.002;2022-09-30T00:35:29;3.37;;;2.70;;
20423;SDS011;10371;49.042;8.002;2022-09-30T00:36:29;2.90;;;2.70;;
20423;SDS011;10371;49.042;8.002;2022-09-30T00:37:29;3.00;;;2.80;;
20423;SDS011;10371;49.042;8.002;2022-09-30T00:38:29;2.70;;;2.50;;
20423;SDS011;10371;49.042;8.002;2022-09-30T00:39:30;2.80;;;2.60;;
20423;SDS011;10371;49.042;8.002;2022-09-30T00:40:30;2.60;;;2.40;;
20423;SDS011;10371;49.042;8.002;2022-09-30T00:41:31;2.40;;;2.30;;
20423;SDS011;10371;49.042;8.002;2022-09-30T00:42:31;2.47;;;2.30;;
20423;SDS011;10371;49.042;8.002;2022-09-30T00:43:41;2.40;;;2.20;;
20423;SDS011;10371;49.042;8.002;2022-09-30T00:44:55;2.83;;;2.30;;
20423;SDS011;10371;49.042;8.002;2022-09-30T00:46:02;2.20;;;2.10;;
20423;SDS011;10371;49.042;8.002;2022-09-30T00:47:10;2.47;;;2.27;;
20423;SDS011;10371;49.042;8.002;2022-09-30T00:48:36;2.30;;;2.20;;
20423;SDS011;10371;49.042;8.002;2022-09-30T00:49:38;2.80;;;2.20;;
20423;SDS011;10371;49.042;8.002;2022-09-30T00:50:44;2.50;;;2.23;;
20423;SDS011;10371;49.042;8.002;2022-09-30T00:51:49;2.70;;;2.10;;
20423;SDS011;10371;49.042;8.002;2022-09-30T00:53:13;2.30;;;2.10;;
20423;SDS011;10371;49.042;8.002;2022-09-30T00:54:20;2.43;;;2.10;;
20423;SDS011;10371;49.042;8.002;2022-09-30T00:55:25;2.80;;;2.03;;
20423;SDS011;10371;49.042;8.002;2022-09-30T00:56:32;2.37;;;2.17;;
20423;SDS011;10371;49.042;8.002;2022-09-30T00:57:36;2.00;;;1.90;;
20423;SDS011;10371;49.042;8.002;2022-09-30T00:59:46;4.10;;;2.60;;
20423;SDS011;10371;49.042;8.002;2022-09-30T01:00:50;2.40;;;2.20;;
20423;SDS011;10371;49.042;8.002;2022-09-30T01:01:51;2.33;;;2.13;;
20423;SDS011;10371;49.042;8.002;2022-09-30T01:02:51;2.70;;;2.50;;
20423;SDS011;10371;49.042;8.002;2022-09-30T01:03:57;2.20;;;2.10;;
20423;SDS011;10371;49.042;8.002;2022-09-30T01:05:03;3.73;;;2.00;;
20423;SDS011;10371;49.042;8.002;2022-09-30T01:06:04;1.93;;;1.83;;
20423;SDS011;10371;49.042;8.002;2022-09-30T01:07:05;2.10;;;1.90;;
20423;SDS011;10371;49.042;8.002;2022-09-30T01:08:06;3.83;;;2.17;;
20423;SDS011;10371;49.042;8.002;2022-09-30T01:09:09;2.33;;;2.13;;
20423;SDS011;10371;49.042;8.002;2022-09-30T01:10:10;3.10;;;2.27;;
20423;SDS011;10371;49.042;8.002;2022-09-30T01:11:10;2.33;;;2.13;;
20423;SDS011;10371;49.042;8.002;2022-09-30T01:12:12;2.93;;;1.77;;
20423;SDS011;10371;49.042;8.002;2022-09-30T01:13:16;2.27;;;2.10;;
20423;SDS011;10371;49.042;8.002;2022-09-30T01:14:20;1.90;;;1.80;;
20423;SDS011;10371;49.042;8.002;2022-09-30T01:15:27;2.00;;;1.90;;
20423;SDS011;10371;49.042;8.002;2022-09-30T01:18:09;1.90;;;1.77;;
20423;SDS011;10371;49.042;8.002;2022-09-30T01:23:26;2.33;;;1.90;;
20423;SDS011;10371;49.042;8.002;2022-09-30T01:27:40;1.80;;;1.70;;
20423;SDS011;10371;49.042;8.002;2022-09-30T01:30:22;1.80;;;1.70;;
20423;SDS011;10371;49.042;8.002;2022-09-30T01:31:56;1.70;;;1.60;;
20423;SDS011;10371;49.042;8.002;2022-09-30T01:35:55;1.83;;;1.73;;
20423;SDS011;10371;49.042;8.002;2022-09-30T01:38:26;2.80;;;1.97;;
20423;SDS011;10371;49.042;8.002;2022-09-30T01:39:35;2.53;;;1.93;;
20423;SDS011;10371;49.042;8.002;2022-09-30T01:42:10;2.27;;;2.07;;
20423;SDS011;10371;49.042;8.002;2022-09-30T01:44:45;2.63;;;1.77;;
20423;SDS011;10371;49.042;8.002;2022-09-30T01:45:49;1.87;;;1.77;;
20423;SDS011;10371;49.042;8.002;2022-09-30T01:49:26;2.17;;;1.70;;
20423;SDS011;10371;49.042;8.002;2022-09-30T01:50:41;2.57;;;1.97;;
20423;SDS011;10371;49.042;8.002;2022-09-30T01:51:56;2.07;;;1.70;;
20423;SDS011;10371;49.042;8.002;2022-09-30T01:53:16;1.80;;;1.70;;
20423;SDS011;10371;49.042;8.002;2022-09-30T01:54:26;2.10;;;1.90;;
20423;SDS011;10371;49.042;8.002;2022-09-30T01:55:36;2.00;;;1.73;;
20423;SDS011;10371;49.042;8.002;2022-09-30T01:56:43;1.93;;;1.83;;
20423;SDS011;10371;49.042;8.002;2022-09-30T01:57:59;2.00;;;1.80;;
20423;SDS011;10371;49.042;8.002;2022-09-30T02:00:37;1.97;;;1.80;;
20423;SDS011;10371;49.042;8.002;2022-09-30T02:01:46;2.13;;;1.80;;
20423;SDS011;10371;49.042;8.002;2022-09-30T02:02:53;1.90;;;1.70;;
20423;SDS011;10371;49.042;8.002;2022-09-30T02:04:00;1.70;;;1.60;;
20423;SDS011;10371;49.042;8.002;2022-09-30T02:05:07;1.60;;;1.50;;
20423;SDS011;10371;49.042;8.002;2022-09-30T02:06:17;1.73;;;1.63;;
20423;SDS011;10371;49.042;8.002;2022-09-30T02:07:22;3.73;;;1.97;;
20423;SDS011;10371;49.042;8.002;2022-09-30T02:08:30;1.90;;;1.80;;
20423;SDS011;10371;49.042;8.002;2022-09-30T02:09:38;3.10;;;2.07;;
20423;SDS011;10371;49.042;8.002;2022-09-30T02:10:46;2.70;;;2.20;;
20423;SDS011;10371;49.042;8.002;2022-09-30T02:11:55;2.37;;;2.27;;
20423;SDS011;10371;49.042;8.002;2022-09-30T02:13:03;2.57;;;1.83;;
20423;SDS011;10371;49.042;8.002;2022-09-30T02:14:26;3.10;;;2.30;;
20423;SDS011;10371;49.042;8.002;2022-09-30T02:15:34;3.87;;;2.50;;
20423;SDS011;10371;49.042;8.002;2022-09-30T02:16:39;3.77;;;2.53;;
20423;SDS011;10371;49.042;8.002;2022-09-30T02:17:44;2.63;;;2.37;;
20423;SDS011;10371;49.042;8.002;2022-09-30T02:18:51;2.63;;;2.43;;
20423;SDS011;10371;49.042;8.002;2022-09-30T02:21:22;2.60;;;2.40;;
20423;SDS011;10371;49.042;8.002;2022-09-30T02:22:30;2.37;;;2.07;;
20423;SDS011;10371;49.042;8.002;2022-09-30T02:23:40;2.50;;;2.30;;
20423;SDS011;10371;49.042;8.002;2022-09-30T02:24:43;2.40;;;2.20;;
20423;SDS011;10371;49.042;8.002;2022-09-30T02:25:50;2.53;;;2.33;;
20423;SDS011;10371;49.042;8.002;2022-09-30T02:26:57;2.17;;;2.07;;
20423;SDS011;10371;49.042;8.002;2022-09-30T02:28:02;3.30;;;2.43;;
20423;SDS011;10371;49.042;8.002;2022-09-30T02:29:08;2.70;;;2.50;;
20423;SDS011;10371;49.042;8.002;2022-09-30T02:30:22;2.13;;;2.00;;
20423;SDS011;10371;49.042;8.002;2022-09-30T02:31:23;3.43;;;2.40;;
20423;SDS011;10371;49.042;8.002;2022-09-30T02:32:27;2.70;;;2.40;;
20423;SDS011;10371;49.042;8.002;2022-09-30T02:34:18;2.57;;;2.37;;
20423;SDS011;10371;49.042;8.002;2022-09-30T02:35:29;2.30;;;2.10;;
20423;SDS011;10371;49.042;8.002;2022-09-30T02:36:46;2.23;;;2.03;;
20423;SDS011;10371;49.042;8.002;2022-09-30T02:37:57;2.20;;;2.00;;
20423;SDS011;10371;49.042;8.002;2022-09-30T02:39:04;2.03;;;1.93;;
20423;SDS011;10371;49.042;8.002;2022-09-30T02:41:16;2.30;;;2.13;;
20423;SDS011;10371;49.042;8.002;2022-09-30T02:42:23;2.63;;;2.10;;
20423;SDS011;10371;49.042;8.002;2022-09-30T02:43:27;2.30;;;2.20;;
20423;SDS011;10371;49.042;8.002;2022-09-30T02:44:29;2.20;;;2.10;;
20423;SDS011;10371;49.042;8.002;2022-09-30T02:45:32;2.33;;;2.13;;
20423;SDS011;10371;49.042;8.002;2022-09-30T02:47:10;2.20;;;2.00;;
20423;SDS011;10371;49.042;8.002;2022-09-30T02:50:48;4.70;;;4.30;;
20423;SDS011;10371;49.042;8.002;2022-09-30T02:53:22;10.63;;;8.87;;
20423;SDS011;10371;49.042;8.002;2022-09-30T02:54:31;7.90;;;7.10;;
20423;SDS011;10371;49.042;8.002;2022-09-30T02:56:54;8.03;;;5.27;;
20423;SDS011;10371;49.042;8.002;2022-09-30T02:59:28;4.37;;;3.67;;
20423;SDS011;10371;49.042;8.002;2022-09-30T03:00:28;3.73;;;3.43;;
20423;SDS011;10371;49.042;8.002;2022-09-30T03:01:28;4.23;;;3.83;;
20423;SDS011;10371;49.042;8.002;2022-09-30T03:02:30;3.73;;;3.47;;
20423;SDS011;10371;49.042;8.002;2022-09-30T03:04:13;3.27;;;3.03;;
20423;SDS011;10371;49.042;8.002;2022-09-30T03:04:58;3.37;;;2.93;;
20423;SDS011;10371;49.042;8.002;2022-09-30T03:05:59;3.47;;;3.17;;
20423;SDS011;10371;49.042;8.002;2022-09-30T03:06:59;3.50;;;3.00;;
20423;SDS011;10371;49.042;8.002;2022-09-30T03:08:00;3.10;;;2.90;;
20423;SDS011;10371;49.042;8.002;2022-09-30T03:09:01;2.87;;;2.67;;
20423;SDS011;10371;49.042;8.002;2022-09-30T03:10:05;3.13;;;2.87;;
20423;SDS011;10371;49.042;8.002;2022-09-30T03:11:13;3.20;;;2.90;;
20423;SDS011;10371;49.042;8.002;2022-09-30T03:15:04;3.00;;;2.80;;
20423;SDS011;10371;49.042;8.002;2022-09-30T03:20:07;3.10;;;2.80;;
20423;SDS011;10371;49.042;8.002;2022-09-30T03:21:15;3.03;;;2.77;;
20423;SDS011;10371;49.042;8.002;2022-09-30T03:25:42;4.23;;;2.60;;
20423;SDS011;10371;49.042;8.002;2022-09-30T03:28:28;2.70;;;2.50;;
20423;SDS011;10371;49.042;8.002;2022-09-30T03:32:43;2.80;;;2.60;;
20423;SDS011;10371;49.042;8.002;2022-09-30T03:34:01;3.00;;;2.77;;
20423;SDS011;10371;49.042;8.002;2022-09-30T03:35:24;3.57;;;2.57;;
20423;SDS011;10371;49.042;8.002;2022-09-30T03:36:39;3.27;;;2.77;;
20423;SDS011;10371;49.042;8.002;2022-09-30T03:40:03;2.70;;;2.50;;
20423;SDS011;10371;49.042;8.002;2022-09-30T03:42:12;2.83;;;2.50;;
20423;SDS011;10371;49.042;8.002;2022-09-30T03:42:49;3.27;;;2.60;;
20423;SDS011;10371;49.042;8.002;2022-09-30T03:44:11;2.90;;;2.57;;
20423;SDS011;10371;49.042;8.002;2022-09-30T03:45:21;3.60;;;2.70;;
20423;SDS011;10371;49.042;8.002;2022-09-30T03:46:34;2.83;;;2.63;;
20423;SDS011;10371;49.042;8.002;2022-09-30T03:47:44;2.50;;;2.33;;
20423;SDS011;10371;49.042;8.002;2022-09-30T03:48:49;3.10;;;2.80;;
20423;SDS011;10371;49.042;8.002;2022-09-30T03:49:54;3.13;;;2.93;;
20423;SDS011;10371;49.042;8.002;2022-09-30T03:50:59;3.03;;;2.83;;
20423;SDS011;10371;49.042;8.002;2022-09-30T03:52:03;2.30;;;2.20;;
20423;SDS011;10371;49.042;8.002;2022-09-30T03:53:08;2.80;;;2.60;;
20423;SDS011;10371;49.042;8.002;2022-09-30T03:54:12;2.90;;;2.60;;
20423;SDS011;10371;49.042;8.002;2022-09-30T03:55:13;2.60;;;2.40;;
20423;SDS011;10371;49.042;8.002;2022-09-30T03:56:14;3.03;;;2.80;;
20423;SDS011;10371;49.042;8.002;2022-09-30T03:57:14;3.13;;;2.90;;
20423;SDS011;10371;49.042;8.002;2022-09-30T03:58:18;4.03;;;2.83;;
20423;SDS011;10371;49.042;8.002;2022-09-30T03:59:22;3.57;;;2.80;;
20423;SDS011;10371;49.042;8.002;2022-09-30T04:00:24;2.97;;;2.70;;
20423;SDS011;10371;49.042;8.002;2022-09-30T04:01:24;3.40;;;2.87;;
20423;SDS011;10371;49.042;8.002;2022-09-30T04:02:25;3.47;;;2.97;;
20423;SDS011;10371;49.042;8.002;2022-09-30T04:03:26;2.97;;;2.77;;
20423;SDS011;10371;49.042;8.002;2022-09-30T04:04:27;3.53;;;3.17;;
20423;SDS011;10371;49.042;8.002;2022-09-30T04:05:27;3.57;;;2.80;;
20423;SDS011;10371;49.042;8.002;2022-09-30T04:06:27;3.10;;;2.80;;
20423;SDS011;10371;49.042;8.002;2022-09-30T04:07:28;3.47;;;2.80;;
20423;SDS011;10371;49.042;8.002;2022-09-30T04:08:28;3.00;;;2.80;;
20423;SDS011;10371;49.042;8.002;2022-09-30T04:09:29;3.43;;;3.13;;
20423;SDS011;10371;49.042;8.002;2022-09-30T04:10:29;3.50;;;2.97;;
20423;SDS011;10371;49.042;8.002;2022-09-30T04:11:29;2.97;;;2.77;;
20423;SDS011;10371;49.042;8.002;2022-09-30T04:12:30;3.10;;;2.80;;
20423;SDS011;10371;49.042;8.002;2022-09-30T04:13:30;3.37;;;2.90;;
20423;SDS011;10371;49.042;8.002;2022-09-30T04:14:31;3.20;;;2.90;;
20423;SDS011;10371;49.042;8.002;2022-09-30T04:15:32;3.07;;;2.77;;
20423;SDS011;10371;49.042;8.002;2022-09-30T04:16:33;2.90;;;2.70;;
20423;SDS011;10371;49.042;8.002;2022-09-30T04:17:33;3.67;;;2.97;;
20423;SDS011;10371;49.042;8.002;2022-09-30T04:18:34;2.80;;;2.50;;
20423;SDS011;10371;49.042;8.002;2022-09-30T04:19:36;4.20;;;2.90;;
20423;SDS011;10371;49.042;8.002;2022-09-30T04:20:39;3.67;;;2.80;;
20423;SDS011;10371;49.042;8.002;2022-09-30T04:21:39;3.00;;;2.80;;
20423;SDS011;10371;49.042;8.002;2022-09-30T04:22:39;2.90;;;2.70;;
20423;SDS011;10371;49.042;8.002;2022-09-30T04:23:40;2.97;;;2.67;;
20423;SDS011;10371;49.042;8.002;2022-09-30T04:24:42;3.00;;;2.73;;
20423;SDS011;10371;49.042;8.002;2022-09-30T04:25:42;3.67;;;2.73;;
20423;SDS011;10371;49.042;8.002;2022-09-30T04:26:43;3.30;;;2.90;;
20423;SDS011;10371;49.042;8.002;2022-09-30T04:27:43;2.77;;;2.50;;
20423;SDS011;10371;49.042;8.002;2022-09-30T04:28:43;2.90;;;2.60;;
20423;SDS011;10371;49.042;8.002;2022-09-30T04:29:43;2.80;;;2.60;;
20423;SDS011;10371;49.042;8.002;2022-09-30T04:30:44;3.13;;;2.70;;
20423;SDS011;10371;49.042;8.002;2022-09-30T04:31:44;3.23;;;3.00;;
20423;SDS011;10371;49.042;8.002;2022-09-30T04:32:44;3.27;;;3.07;;
20423;SDS011;10371;49.042;8.002;2022-09-30T04:33:45;4.80;;;2.87;;
20423;SDS011;10371;49.042;8.002;2022-09-30T04:34:45;3.60;;;2.83;;
20423;SDS011;10371;49.042;8.002;2022-09-30T04:35:46;3.17;;;2.97;;
20423;SDS011;10371;49.042;8.002;2022-09-30T04:36:46;3.20;;;3.00;;
20423;SDS011;10371;49.042;8.002;2022-09-30T04:37:46;4.20;;;3.80;;
20423;SDS011;10371;49.042;8.002;2022-09-30T04:38:47;3.50;;;3.20;;
20423;SDS011;10371;49.042;8.002;2022-09-30T04:39:47;3.43;;;3.13;;
20423;SDS011;10371;49.042;8.002;2022-09-30T04:40:48;3.73;;;3.43;;
20423;SDS011;10371;49.042;8.002;2022-09-30T04:41:48;3.10;;;2.80;;
20423;SDS011;10371;49.042;8.002;2022-09-30T04:42:54;3.10;;;2.90;;
20423;SDS011;10371;49.042;8.002;2022-09-30T04:43:57;3.23;;;2.87;;
20423;SDS011;10371;49.042;8.002;2022-09-30T04:44:57;2.87;;;2.57;;
20423;SDS011;10371;49.042;8.002;2022-09-30T04:45:58;4.10;;;2.80;;
20423;SDS011;10371;49.042;8.002;2022-09-30T04:46:59;3.57;;;3.13;;
20423;SDS011;10371;49.042;8.002;2022-09-30T04:47:59;3.50;;;2.70;;
20423;SDS011;10371;49.042;8.002;2022-09-30T04:49:00;3.43;;;2.80;;
20423;SDS011;10371;49.042;8.002;2022-09-30T04:50:00;2.90;;;2.70;;
20423;SDS011;10371;49.042;8.002;2022-09-30T04:51:00;2.90;;;2.60;;
20423;SDS011;10371;49.042;8.002;2022-09-30T04:52:01;3.17;;;2.87;;
20423;SDS011;10371;49.042;8.002;2022-09-30T04:53:01;4.03;;;2.90;;
20423;SDS011;10371;49.042;8.002;2022-09-30T04:54:02;3.60;;;3.20;;
20423;SDS011;10371;49.042;8.002;2022-09-30T04:55:03;4.53;;;2.90;;
20423;SDS011;10371;49.042;8.002;2022-09-30T04:56:04;5.20;;;2.83;;
20423;SDS011;10371;49.042;8.002;2022-09-30T04:57:05;3.70;;;2.70;;
20423;SDS011;10371;49.042;8.002;2022-09-30T04:58:05;2.97;;;2.57;;
20423;SDS011;10371;49.042;8.002;2022-09-30T04:59:05;5.53;;;3.10;;
20423;SDS011;10371;49.042;8.002;2022-09-30T05:00:06;3.97;;;2.87;;
20423;SDS011;10371;49.042;8.002;2022-09-30T05:01:09;3.00;;;2.80;;
20423;SDS011;10371;49.042;8.002;2022-09-30T05:02:12;3.17;;;2.87;;
20423;SDS011;10371;49.042;8.002;2022-09-30T05:03:12;3.30;;;2.90;;
20423;SDS011;10371;49.042;8.002;2022-09-30T05:04:14;4.13;;;2.90;;
20423;SDS011;10371;49.042;8.002;2022-09-30T05:05:15;3.07;;;2.63;;
20423;SDS011;10371;49.042;8.002;2022-09-30T05:06:16;3.07;;;2.80;;
20423;SDS011;10371;49.042;8.002;2022-09-30T05:07:17;3.07;;;2.83;;
20423;SDS011;10371;49.042;8.002;2022-09-30T05:08:17;3.60;;;2.90;;
20423;SDS011;10371;49.042;8.002;2022-09-30T05:09:17;3.10;;;2.90;;
20423;SDS011;10371;49.042;8.002;2022-09-30T05:10:17;3.67;;;3.00;;
20423;SDS011;10371;49.042;8.002;2022-09-30T05:11:19;4.07;;;2.93;;
20423;SDS011;10371;49.042;8.002;2022-09-30T05:12:20;3.20;;;2.90;;
20423;SDS011;10371;49.042;8.002;2022-09-30T05:13:21;3.00;;;2.70;;
20423;SDS011;10371;49.042;8.002;2022-09-30T05:14:21;3.30;;;2.63;;
20423;SDS011;10371;49.042;8.002;2022-09-30T05:15:21;3.43;;;3.00;;
20423;SDS011;10371;49.042;8.002;2022-09-30T05:16:22;2.80;;;2.60;;
20423;SDS011;10371;49.042;8.002;2022-09-30T05:17:22;3.53;;;3.03;;
20423;SDS011;10371;49.042;8.002;2022-09-30T05:18:22;2.90;;;2.70;;
20423;SDS011;10371;49.042;8.002;2022-09-30T05:19:25;3.53;;;3.10;;
20423;SDS011;10371;49.042;8.002;2022-09-30T05:20:25;4.63;;;2.90;;
20423;SDS011;10371;49.042;8.002;2022-09-30T05:21:25;3.47;;;3.00;;
20423;SDS011;10371;49.042;8.002;2022-09-30T05:22:26;3.73;;;2.73;;
20423;SDS011;10371;49.042;8.002;2022-09-30T05:23:28;3.70;;;3.40;;
20423;SDS011;10371;49.042;8.002;2022-09-30T05:24:30;3.17;;;2.90;;
20423;SDS011;10371;49.042;8.002;2022-09-30T05:25:30;3.17;;;2.80;;
20423;SDS011;10371;49.042;8.002;2022-09-30T05:26:30;3.00;;;2.70;;
20423;SDS011;10371;49.042;8.002;2022-09-30T05:27:31;3.07;;;2.80;;
20423;SDS011;10371;49.042;8.002;2022-09-30T05:28:32;3.63;;;3.27;;
20423;SDS011;10371;49.042;8.002;2022-09-30T05:29:32;3.80;;;3.10;;
20423;SDS011;10371;49.042;8.002;2022-09-30T05:30:33;3.17;;;2.90;;
20423;SDS011;10371;49.042;8.002;2022-09-30T05:31:33;2.80;;;2.60;;
20423;SDS011;10371;49.042;8.002;2022-09-30T05:32:33;3.53;;;2.60;;
20423;SDS011;10371;49.042;8.002;2022-09-30T05:33:34;4.50;;;3.17;;
20423;SDS011;10371;49.042;8.002;2022-09-30T05:34:34;3.60;;;3.30;;
20423;SDS011;10371;49.042;8.002;2022-09-30T05:35:36;3.60;;;3.30;;
20423;SDS011;10371;49.042;8.002;2022-09-30T05:36:36;3.63;;;3.30;;
20423;SDS011;10371;49.042;8.002;2022-09-30T05:37:36;4.70;;;4.20;;
20423;SDS011;10371;49.042;8.002;2022-09-30T05:38:37;6.33;;;5.07;;
20423;SDS011;10371;49.042;8.002;2022-09-30T05:39:37;6.40;;;4.90;;
20423;SDS011;10371;49.042;8.002;2022-09-30T05:40:38;5.90;;;5.40;;
20423;SDS011;10371;49.042;8.002;2022-09-30T05:41:39;6.80;;;6.10;;
20423;SDS011;10371;49.042;8.002;2022-09-30T05:42:39;7.43;;;6.73;;
20423;SDS011;10371;49.042;8.002;2022-09-30T05:43:40;8.73;;;7.83;;
20423;SDS011;10371;49.042;8.002;2022-09-30T05:44:44;8.63;;;7.83;;
20423;SDS011;10371;49.042;8.002;2022-09-30T05:45:54;10.60;;;8.30;;
20423;SDS011;10371;49.042;8.002;2022-09-30T05:46:55;8.83;;;7.63;;
20423;SDS011;10371;49.042;8.002;2022-09-30T05:47:56;9.07;;;7.97;;
20423;SDS011;10371;49.042;8.002;2022-09-30T05:48:57;10.20;;;8.10;;
20423;SDS011;10371;49.042;8.002;2022-09-30T05:49:57;9.70;;;8.50;;
20423;SDS011;10371;49.042;8.002;2022-09-30T05:50:58;11.50;;;9.23;;
20423;SDS011;10371;49.042;8.002;2022-09-30T05:52:00;9.83;;;8.70;;
20423;SDS011;10371;49.042;8.002;2022-09-30T05:53:00;11.60;;;9.60;;
20423;SDS011;10371;49.042;8.002;2022-09-30T05:54:01;9.67;;;8.57;;
20423;SDS011;10371;49.042;8.002;2022-09-30T05:55:01;10.30;;;8.57;;
20423;SDS011;10371;49.042;8.002;2022-09-30T05:56:02;13.97;;;9.00;;
20423;SDS011;10371;49.042;8.002;2022-09-30T05:57:03;10.47;;;8.03;;
20423;SDS011;10371;49.042;8.002;2022-09-30T05:58:03;9.17;;;6.53;;
20423;SDS011;10371;49.042;8.002;2022-09-30T05:59:04;8.43;;;7.00;;
20423;SDS011;10371;49.042;8.002;2022-09-30T06:00:05;7.13;;;4.30;;
20423;SDS011;10371;49.042;8.002;2022-09-30T06:01:14;4.20;;;3.53;;
20423;SDS011;10371;49.042;8.002;2022-09-30T06:02:15;3.13;;;2.83;;
20423;SDS011;10371;49.042;8.002;2022-09-30T06:03:16;2.97;;;2.77;;
20423;SDS011;10371;49.042;8.002;2022-09-30T06:04:17;4.45;;;3.00;;
20423;SDS011;10371;49.042;8.002;2022-09-30T06:05:17;5.33;;;2.90;;
20423;SDS011;10371;49.042;8.002;2022-09-30T06:06:18;4.33;;;2.40;;
20423;SDS011;10371;49.042;8.002;2022-09-30T06:07:19;3.17;;;2.70;;
20423;SDS011;10371;49.042;8.002;2022-09-30T06:08:19;2.93;;;2.50;;
20423;SDS011;10371;49.042;8.002;2022-09-30T06:09:19;2.97;;;2.67;;
20423;SDS011;10371;49.042;8.002;2022-09-30T06:10:19;2.90;;;2.70;;
20423;SDS011;10371;49.042;8.002;2022-09-30T06:11:20;3.20;;;2.93;;
20423;SDS011;10371;49.042;8.002;2022-09-30T06:12:23;3.53;;;3.23;;
20423;SDS011;10371;49.042;8.002;2022-09-30T06:13:26;4.70;;;4.20;;
20423;SDS011;10371;49.042;8.002;2022-09-30T06:14:27;4.57;;;4.17;;
20423;SDS011;10371;49.042;8.002;2022-09-30T06:15:27;5.10;;;4.50;;
20423;SDS011;10371;49.042;8.002;2022-09-30T06:16:29;7.20;;;4.77;;
20423;SDS011;10371;49.042;8.002;2022-09-30T06:17:30;5.33;;;4.83;;
20423;SDS011;10371;49.042;8.002;2022-09-30T06:18:31;7.43;;;6.73;;
20423;SDS011;10371;49.042;8.002;2022-09-30T06:19:31;6.87;;;6.27;;
20423;SDS011;10371;49.042;8.002;2022-09-30T06:20:31;6.50;;;5.80;;
20423;SDS011;10371;49.042;8.002;2022-09-30T06:21:32;6.90;;;6.30;;
20423;SDS011;10371;49.042;8.002;2022-09-30T06:22:32;7.63;;;5.97;;
20423;SDS011;10371;49.042;8.002;2022-09-30T06:23:34;7.30;;;6.53;;
20423;SDS011;10371;49.042;8.002;2022-09-30T06:24:35;6.50;;;5.87;;
20423;SDS011;10371;49.042;8.002;2022-09-30T06:25:36;6.67;;;6.10;;
20423;SDS011;10371;49.042;8.002;2022-09-30T06:26:36;7.90;;;6.70;;
20423;SDS011;10371;49.042;8.002;2022-09-30T06:27:36;6.93;;;6.33;;
20423;SDS011;10371;49.042;8.002;2022-09-30T06:28:37;6.57;;;5.97;;
20423;SDS011;10371;49.042;8.002;2022-09-30T06:29:38;6.33;;;5.73;;
20423;SDS011;10371;49.042;8.002;2022-09-30T06:30:38;5.73;;;5.23;;
20423;SDS011;10371;49.042;8.002;2022-09-30T06:31:39;5.63;;;5.20;;
20423;SDS011;10371;49.042;8.002;2022-09-30T06:32:39;5.87;;;5.27;;
20423;SDS011;10371;49.042;8.002;2022-09-30T06:33:41;5.33;;;4.87;;
20423;SDS011;10371;49.042;8.002;2022-09-30T06:34:42;5.13;;;4.73;;
20423;SDS011;10371;49.042;8.002;2022-09-30T06:35:43;4.80;;;4.40;;
20423;SDS011;10371;49.042;8.002;2022-09-30T06:36:43;4.10;;;3.80;;
20423;SDS011;10371;49.042;8.002;2022-09-30T06:37:43;3.60;;;3.30;;
20423;SDS011;10371;49.042;8.002;2022-09-30T06:38:46;4.33;;;2.80;;
20423;SDS011;10371;49.042;8.002;2022-09-30T06:39:50;3.03;;;2.50;;
20423;SDS011;10371;49.042;8.002;2022-09-30T06:40:50;3.77;;;2.80;;
20423;SDS011;10371;49.042;8.002;2022-09-30T06:41:51;3.37;;;3.07;;
20423;SDS011;10371;49.042;8.002;2022-09-30T06:42:51;3.50;;;3.20;;
20423;SDS011;10371;49.042;8.002;2022-09-30T06:43:57;3.30;;;3.00;;
20423;SDS011;10371;49.042;8.002;2022-09-30T06:44:57;3.43;;;2.87;;
20423;SDS011;10371;49.042;8.002;2022-09-30T06:45:58;3.80;;;3.50;;
20423;SDS011;10371;49.042;8.002;2022-09-30T06:46:58;3.57;;;3.27;;
20423;SDS011;10371;49.042;8.002;2022-09-30T06:47:59;3.77;;;3.20;;
20423;SDS011;10371;49.042;8.002;2022-09-30T06:49:01;4.47;;;3.30;;
20423;SDS011;10371;49.042;8.002;2022-09-30T06:50:02;3.53;;;3.23;;
20423;SDS011;10371;49.042;8.002;2022-09-30T06:51:02;3.47;;;3.17;;
20423;SDS011;10371;49.042;8.002;2022-09-30T06:52:02;4.40;;;3.80;;
20423;SDS011;10371;49.042;8.002;2022-09-30T06:53:04;4.47;;;3.23;;
20423;SDS011;10371;49.042;8.002;2022-09-30T06:54:05;6.47;;;3.53;;
20423;SDS011;10371;49.042;8.002;2022-09-30T06:55:08;4.47;;;4.07;;
20423;SDS011;10371;49.042;8.002;2022-09-30T06:56:08;4.83;;;4.33;;
20423;SDS011;10371;49.042;8.002;2022-09-30T06:57:08;5.37;;;4.87;;
20423;SDS011;10371;49.042;8.002;2022-09-30T06:58:12;7.00;;;4.80;;
20423;SDS011;10371;49.042;8.002;2022-09-30T06:59:14;5.37;;;4.87;;
20423;SDS011;10371;49.042;8.002;2022-09-30T07:00:17;5.10;;;4.60;;
20423;SDS011;10371;49.042;8.002;2022-09-30T07:01:17;4.27;;;3.87;;
20423;SDS011;10371;49.042;8.002;2022-09-30T07:02:19;4.33;;;4.03;;
20423;SDS011;10371;49.042;8.002;2022-09-30T07:03:23;4.43;;;4.03;;
20423;SDS011;10371;49.042;8.002;2022-09-30T07:04:28;4.37;;;3.97;;
20423;SDS011;10371;49.042;8.002;2022-09-30T07:05:29;4.40;;;4.00;;
20423;SDS011;10371;49.042;8.002;2022-09-30T07:06:29;4.93;;;3.87;;
20423;SDS011;10371;49.042;8.002;2022-09-30T07:07:30;4.07;;;3.77;;
20423;SDS011;10371;49.042;8.002;2022-09-30T07:08:33;13.43;;;8.13;;
20423;SDS011;10371;49.042;8.002;2022-09-30T07:09:34;10.17;;;7.10;;
20423;SDS011;10371;49.042;8.002;2022-09-30T07:10:35;13.33;;;7.23;;
20423;SDS011;10371;49.042;8.002;2022-09-30T07:11:35;24.73;;;11.30;;
20423;SDS011;10371;49.042;8.002;2022-09-30T07:12:39;20.05;;;9.15;;
20423;SDS011;10371;49.042;8.002;2022-09-30T07:13:41;17.43;;;7.97;;